Tully, NY (13159)

10:13 PM EDT on March 23, 2017 (GMT -0400)
Tully | | Change Station
Active Advisory: Winter Weather Advisory

Elev 1361 ft 42.81 °N, 76.11 °W | Updated 7 minutes ago

Partly Cloudy
Partly Cloudy
26.5 °F
Feels Like 26 °F
N
1.0
Wind Variable Wind from East
Gusts 4.0 mph

Today
High -- | Low -- °F
--% Chance of Precip.
Yesterday
High -- | Low -- °F
Precip. -- in
Pressure 30.42 in
Visibility 10.0 miles
Clouds Clear
Windchill 26 °F
Dew Point 4 °F
Humidity 37%
Rainfall 0.00 in
Snow Depth Not available.
7:01 AM 7:20 PM
Waning Crescent, 19% visible
METAR KN03 240155Z AUTO 00000KT 10SM CLR M02/M11 A3042 RMK AO2
Pressure 30.42 in
Visibility 10.0 miles
Clouds Clear
Windchill 26 °F
Dew Point 4 °F
Humidity 37%
Rainfall 0.00 in
Snow Depth Not available.
7:01 AM 7:20 PM
Waning Crescent, 19% visible
METAR KN03 240155Z AUTO 00000KT 10SM CLR M02/M11 A3042 RMK AO2

Get Your Daily Forecast Email!

Thanks for signing up!

Be on the lookout for a verification email in your inbox.

You'll start receiving severe weather alerts in your inbox..

×

10-Day Weather Forecast

Almanac

Astronomy

Mar. 23, 2017 Rise Set
Actual Time
Civil Twilight
Nautical Twilight
Astronomical Twilight
Moon
Length of Visible Light
Length of Day
Tomorrow will be .
, % of the Moon is Illuminated

Today's Extremes

State Highs State Lows

Community

WunderPhotos

Upload Photos

1,962,540 photos uploaded!

WunderBlog® & News

Nearby

Air Quality

  Air Quality AQ Index Pollutant
Not available.

Snow Depth

Station Depth Elevation

Earthquake Activity

City Distance Mag. Time & Date
Minimum magnitude displayed is 2.5.

Earthquake Activity

City Distance Mag. Time & Date
Minimum magnitude displayed is 2.5.

Coastal Water Temperatures

Place Temperature

Stations

Nearby Weather Stations

Station Location Temp. Windchill Dew Point Humidity Wind Precip. Elev Updated Type
                   

Watches & Warnings

Winter Weather Advisory
Issued: 9:24 PM EDT Mar. 23, 2017 – National Weather Service

... Winter Weather Advisory remains in effect from 5 am to 11 am
EDT Friday...

* hazard types... freezing rain and sleet.

* Accumulations... ice accumulations of a tenth of an inch or
less.

* Timing... the wintry mix will affect the region late tonight
through late morning Friday. The morning commute could be
adversely affected.

* Impacts... hazardous travel on untreated roads. Remember,
bridges tend to freeze first.

* Temperatures... during freezing rain onset temperatures starting
in the mid to upper 20s, then slowly rising to above freezing
by mid to late morning.

Precautionary/preparedness actions...

A Winter Weather Advisory means that periods of snow, sleet, or
freezing rain will cause travel difficulties. Be prepared for
slippery roads and limited visibilities, and use caution while
driving.